createdAt,value
2019-01-28T00:01:05.497Z,7.07
2019-01-28T00:03:35.166Z,7.22
2019-01-28T00:06:06.603Z,7.22
2019-01-28T00:08:35.817Z,7.44
2019-01-28T00:11:03.650Z,7.60
2019-01-28T00:13:36.548Z,7.48
2019-01-28T00:16:03.566Z,7.47
2019-01-28T00:18:37.115Z,7.38
2019-01-28T00:21:05.944Z,7.23
2019-01-28T00:23:34.065Z,7.06
2019-01-28T00:26:01.724Z,7.06
2019-01-28T00:28:29.377Z,7.11
2019-01-28T00:30:56.948Z,7.12
2019-01-28T00:33:28.883Z,7.36
2019-01-28T00:35:56.850Z,7.46
2019-01-28T00:38:25.186Z,7.54
2019-01-28T00:40:54.395Z,7.58
2019-01-28T00:43:23.336Z,7.47
2019-01-28T00:45:52.430Z,7.38
2019-01-28T00:48:23.184Z,7.51
2019-01-28T00:50:50.734Z,7.61
2019-01-28T00:53:18.750Z,7.61
2019-01-28T00:55:49.879Z,7.55
2019-01-28T00:58:18.230Z,7.64
2019-01-28T01:00:46.905Z,7.71
2019-01-28T01:03:15.073Z,7.69
2019-01-28T01:05:43.304Z,7.42
2019-01-28T01:08:12.361Z,7.45
2019-01-28T01:10:39.186Z,7.57
2019-01-28T01:13:06.835Z,7.80
2019-01-28T01:15:34.266Z,7.76
2019-01-28T01:18:05.039Z,7.66
2019-01-28T01:20:34.237Z,7.44
2019-01-28T01:23:04.827Z,7.53
2019-01-28T01:25:32.106Z,7.48
2019-01-28T01:28:02.484Z,7.70
2019-01-28T01:30:29.914Z,7.71
2019-01-28T01:32:57.693Z,7.62
2019-01-28T01:35:25.680Z,7.74
2019-01-28T01:37:53.582Z,7.85
2019-01-28T01:40:21.627Z,7.78
2019-01-28T01:42:54.934Z,7.76
2019-01-28T01:45:23.996Z,7.58
2019-01-28T01:47:52.437Z,7.46
2019-01-28T01:50:20.087Z,7.33
2019-01-28T01:52:48.917Z,7.23
2019-01-28T01:55:21.603Z,7.19
2019-01-28T01:57:48.492Z,7.19
2019-01-28T02:00:15.891Z,7.19
2019-01-28T02:02:49.723Z,7.03
2019-01-28T02:05:19.714Z,7.01
2019-01-28T02:07:47.475Z,7.01
2019-01-28T02:10:28.093Z,7.15
2019-01-28T02:12:56.019Z,7.18
2019-01-28T02:15:23.642Z,7.35
2019-01-28T02:17:50.543Z,7.23
2019-01-28T02:20:20.271Z,7.06
2019-01-28T02:22:49.923Z,7.09
2019-01-28T02:25:19.634Z,7.15
2019-01-28T02:27:45.995Z,7.19
2019-01-28T02:30:12.825Z,7.32
2019-01-28T02:35:29.101Z,7.37
2019-01-28T02:40:31.275Z,7.60
2019-01-28T02:42:58.356Z,7.77
2019-01-28T02:45:25.303Z,7.84
2019-01-28T02:47:52.155Z,7.84
2019-01-28T02:50:18.767Z,7.86
2019-01-28T02:52:45.707Z,7.90
2019-01-28T02:55:12.448Z,7.79
2019-01-28T02:57:39.293Z,7.76
2019-01-28T03:00:06.253Z,7.55
2019-01-28T03:02:33.522Z,7.45
2019-01-28T03:05:00.516Z,7.56
2019-01-28T03:07:28.428Z,7.68
2019-01-28T03:09:55.353Z,7.70
2019-01-28T03:12:22.180Z,7.61
2019-01-28T03:14:48.891Z,7.62
2019-01-28T03:17:16.650Z,7.64
2019-01-28T03:19:44.036Z,7.53
2019-01-28T03:22:10.742Z,7.56
2019-01-28T03:24:37.908Z,7.66
2019-01-28T03:27:04.688Z,7.62
2019-01-28T03:29:31.668Z,7.56
2019-01-28T03:31:58.313Z,7.61
2019-01-28T03:34:26.516Z,7.61
2019-01-28T03:36:53.498Z,7.57
2019-01-28T03:39:20.131Z,7.73
2019-01-28T03:41:46.917Z,7.89
2019-01-28T03:44:14.198Z,7.85
2019-01-28T03:46:40.930Z,7.86
2019-01-28T03:49:07.634Z,7.74
2019-01-28T03:51:34.306Z,7.88
2019-01-28T03:54:01.335Z,7.90
2019-01-28T03:56:28.373Z,7.93
2019-01-28T03:58:56.064Z,7.88
2019-01-28T04:01:22.744Z,7.91
2019-01-28T04:03:49.449Z,7.73
2019-01-28T04:06:16.872Z,7.86
2019-01-28T04:08:43.479Z,7.94
2019-01-28T04:11:10.449Z,7.92
2019-01-28T04:13:37.573Z,7.88
2019-01-28T04:16:04.982Z,7.94
2019-01-28T04:18:31.934Z,7.82
2019-01-28T04:20:58.563Z,7.59
2019-01-28T04:26:10.782Z,7.38
2019-01-28T04:28:37.654Z,7.23
2019-01-28T04:31:04.778Z,7.45
2019-01-28T04:33:31.854Z,7.44
2019-01-28T04:36:00.967Z,7.48
2019-01-28T04:38:32.149Z,7.42
2019-01-28T04:41:00.197Z,7.62
2019-01-28T04:43:30.548Z,7.82
2019-01-28T04:46:00.170Z,7.85
2019-01-28T04:48:27.107Z,7.92
2019-01-28T04:50:56.045Z,7.85
2019-01-28T04:53:23.965Z,7.79
2019-01-28T04:56:05.470Z,7.70
2019-01-28T04:58:32.963Z,7.79
2019-01-28T05:00:59.514Z,7.86
2019-01-28T05:03:26.245Z,7.92
2019-01-28T05:05:53.137Z,7.82
2019-01-28T05:08:19.991Z,7.73
2019-01-28T05:10:48.402Z,7.61
2019-01-28T05:13:15.024Z,7.66
2019-01-28T05:15:41.940Z,7.63
2019-01-28T05:18:08.581Z,7.51
2019-01-28T05:20:35.230Z,7.39
2019-01-28T05:23:02.121Z,7.20
2019-01-28T05:25:29.105Z,7.12
2019-01-28T05:27:56.309Z,7.17
2019-01-28T05:30:23.114Z,7.30
2019-01-28T05:32:50.073Z,7.52
2019-01-28T05:35:17.990Z,7.71
2019-01-28T05:37:44.823Z,7.83
2019-01-28T05:40:11.665Z,7.92
2019-01-28T05:42:38.374Z,7.97
2019-01-28T05:45:05.054Z,7.91
2019-01-28T05:47:31.663Z,7.80
2019-01-28T05:49:58.441Z,7.90
2019-01-28T05:52:25.106Z,7.97
2019-01-28T05:54:51.846Z,8.02
2019-01-28T05:57:18.934Z,8.13
2019-01-28T05:59:45.582Z,8.08
2019-01-28T06:02:12.609Z,8.02
2019-01-28T06:04:39.233Z,7.91
2019-01-28T06:07:05.868Z,7.83
2019-01-28T06:09:32.831Z,7.85
2019-01-28T06:11:59.777Z,7.87
2019-01-28T06:14:26.611Z,7.93
2019-01-28T06:16:53.386Z,8.25
2019-01-28T06:19:20.127Z,8.10
2019-01-28T06:21:47.062Z,8.15
2019-01-28T06:24:14.026Z,8.10
2019-01-28T06:26:40.971Z,8.14
2019-01-28T06:29:07.704Z,8.13
2019-01-28T06:31:34.700Z,7.97
2019-01-28T06:34:01.561Z,8.11
2019-01-28T06:36:28.395Z,8.14
2019-01-28T06:38:57.331Z,8.18
2019-01-28T06:41:24.825Z,8.24
2019-01-28T06:43:51.783Z,8.18
2019-01-28T06:46:19.810Z,8.04
2019-01-28T06:48:53.757Z,7.92
2019-01-28T06:51:20.423Z,8.04
2019-01-28T06:53:52.491Z,8.07
2019-01-28T06:56:22.055Z,8.00
2019-01-28T06:58:49.894Z,8.08
2019-01-28T07:01:16.588Z,8.24
2019-01-28T07:03:47.274Z,8.15
2019-01-28T07:06:14.651Z,8.22
2019-01-28T07:08:43.828Z,8.38
2019-01-28T07:11:12.203Z,8.43
2019-01-28T07:13:44.994Z,8.67
2019-01-28T07:16:14.293Z,8.56
2019-01-28T07:18:45.292Z,8.64
2019-01-28T07:21:13.146Z,8.52
2019-01-28T07:23:43.690Z,8.48
2019-01-28T07:26:14.576Z,8.66
2019-01-28T07:28:42.932Z,8.79
2019-01-28T07:31:13.260Z,8.89
2019-01-28T07:33:44.359Z,8.88
2019-01-28T07:36:13.940Z,8.89
2019-01-28T07:38:40.780Z,8.87
2019-01-28T07:41:08.529Z,9.04
2019-01-28T07:43:40.621Z,8.87
2019-01-28T07:46:07.978Z,8.66
2019-01-28T07:48:36.856Z,8.72
2019-01-28T07:51:04.604Z,8.87
2019-01-28T07:53:35.427Z,8.87
2019-01-28T07:56:06.342Z,8.91
2019-01-28T07:58:37.073Z,9.05
2019-01-28T08:01:03.851Z,9.19
2019-01-28T08:03:30.739Z,9.42
2019-01-28T08:05:58.080Z,9.37
2019-01-28T08:08:28.236Z,9.23
2019-01-28T08:10:56.248Z,9.21
2019-01-28T08:13:26.078Z,9.37
2019-01-28T08:15:52.761Z,9.14
2019-01-28T08:18:20.821Z,9.17
2019-01-28T08:20:49.892Z,9.36
2019-01-28T08:23:17.599Z,9.28
2019-01-28T08:25:48.976Z,9.39
2019-01-28T08:31:06.016Z,9.28
2019-01-28T08:33:37.745Z,9.38
2019-01-28T08:38:51.486Z,9.40
2019-01-28T08:41:18.194Z,9.55
2019-01-28T08:43:47.787Z,9.59
2019-01-28T08:46:16.669Z,9.60
2019-01-28T08:51:32.149Z,9.72
2019-01-28T08:54:00.953Z,9.81
2019-01-28T08:56:28.631Z,9.94
2019-01-28T08:58:58.334Z,10.09
2019-01-28T09:01:25.722Z,10.10
2019-01-28T09:03:52.539Z,10.15
2019-01-28T09:06:19.247Z,10.40
2019-01-28T09:08:46.285Z,10.61
2019-01-28T09:11:13.524Z,10.59
2019-01-28T09:13:40.268Z,10.55
2019-01-28T09:16:07.370Z,10.47
2019-01-28T09:18:34.593Z,10.56
2019-01-28T09:21:01.610Z,10.85
2019-01-28T09:23:28.581Z,10.77
2019-01-28T09:25:55.409Z,10.58
2019-01-28T09:28:22.288Z,10.65
2019-01-28T09:30:49.106Z,10.84
2019-01-28T09:33:15.939Z,10.84
2019-01-28T09:35:42.595Z,10.86
2019-01-28T09:38:09.528Z,10.99
2019-01-28T09:40:36.516Z,11.23
2019-01-28T09:43:03.778Z,11.24
2019-01-28T09:45:30.618Z,11.37
2019-01-28T09:47:57.532Z,11.54
2019-01-28T09:50:27.264Z,11.61
2019-01-28T09:53:11.820Z,11.59
2019-01-28T09:55:43.015Z,11.65
2019-01-28T09:58:12.785Z,11.65
2019-01-28T10:00:42.359Z,11.69
2019-01-28T10:03:15.358Z,11.70
2019-01-28T10:05:44.384Z,11.77
2019-01-28T10:08:11.031Z,11.89
2019-01-28T10:10:40.038Z,12.12
2019-01-28T10:13:06.979Z,12.17
2019-01-28T10:15:35.865Z,12.15
2019-01-28T10:18:05.754Z,12.27
2019-01-28T10:20:33.438Z,12.29
2019-01-28T10:23:00.176Z,12.43
2019-01-28T10:25:30.246Z,12.32
2019-01-28T10:27:57.067Z,12.35
2019-01-28T10:30:24.043Z,12.40
2019-01-28T10:32:52.102Z,12.45
2019-01-28T10:35:18.881Z,12.39
2019-01-28T10:37:46.356Z,12.35
2019-01-28T10:40:16.686Z,12.34
2019-01-28T10:42:47.737Z,12.30
2019-01-28T10:45:17.160Z,12.15
2019-01-28T10:47:47.802Z,12.23
2019-01-28T10:50:14.525Z,12.37
2019-01-28T10:52:41.719Z,12.32
2019-01-28T10:55:09.089Z,12.19
2019-01-28T10:57:38.497Z,12.30
2019-01-28T11:00:05.240Z,12.15
2019-01-28T11:02:32.281Z,12.13
2019-01-28T11:05:02.601Z,12.39
2019-01-28T11:07:29.244Z,12.38
2019-01-28T11:09:57.600Z,12.14
2019-01-28T11:12:26.864Z,12.00
2019-01-28T11:14:57.749Z,12.20
2019-01-28T11:17:27.947Z,12.24
2019-01-28T11:19:59.622Z,12.25
2019-01-28T11:22:27.790Z,12.45
2019-01-28T11:24:54.581Z,12.59
2019-01-28T11:27:24.095Z,12.73
2019-01-28T11:29:55.871Z,12.53
2019-01-28T11:32:24.986Z,12.44
2019-01-28T11:34:56.188Z,12.59
2019-01-28T11:37:27.950Z,12.62
2019-01-28T11:39:56.556Z,12.68
2019-01-28T11:42:28.091Z,13.00
2019-01-28T11:44:53.653Z,13.18
2019-01-28T11:47:26.087Z,13.38
2019-01-28T11:49:57.019Z,13.14
2019-01-28T11:52:23.791Z,13.03
2019-01-28T11:54:50.665Z,13.43
2019-01-28T11:57:33.461Z,13.25
2019-01-28T11:59:57.497Z,13.45
2019-01-28T12:02:34.018Z,13.53
2019-01-28T12:04:59.041Z,13.66
2019-01-28T12:07:29.472Z,13.67
2019-01-28T12:09:58.175Z,13.39
2019-01-28T12:12:27.746Z,13.10
2019-01-28T12:14:55.364Z,13.18
2019-01-28T12:17:23.847Z,13.09
2019-01-28T12:19:52.572Z,13.06
2019-01-28T12:22:30.597Z,13.23
2019-01-28T12:25:00.995Z,13.35
2019-01-28T12:27:29.047Z,13.43
2019-01-28T12:29:57.219Z,13.26
2019-01-28T12:35:12.488Z,13.11
2019-01-28T12:37:40.174Z,13.01
2019-01-28T12:40:14.801Z,13.04
2019-01-28T12:42:41.677Z,13.01
2019-01-28T12:45:11.001Z,13.00
2019-01-28T12:47:37.775Z,13.06
2019-01-28T12:50:06.840Z,12.94
2019-01-28T12:52:35.709Z,13.04
2019-01-28T12:55:04.431Z,12.91
2019-01-28T12:57:30.795Z,12.92
2019-01-28T13:00:00.931Z,12.63
2019-01-28T13:02:30.119Z,12.66
2019-01-28T13:04:56.750Z,12.63
2019-01-28T13:07:25.965Z,12.33
2019-01-28T13:09:52.894Z,11.99
2019-01-28T13:12:21.784Z,12.17
2019-01-28T13:14:49.702Z,12.18
2019-01-28T13:17:18.674Z,12.11
2019-01-28T13:19:49.009Z,12.15
2019-01-28T13:22:20.180Z,12.36
2019-01-28T13:24:47.879Z,12.40
2019-01-28T13:27:14.815Z,12.34
2019-01-28T13:29:41.979Z,12.39
2019-01-28T13:32:11.889Z,12.49
2019-01-28T13:34:39.419Z,12.67
2019-01-28T13:37:06.066Z,12.58
2019-01-28T13:39:38.465Z,12.74
2019-01-28T13:42:07.018Z,12.98
2019-01-28T13:44:34.303Z,12.72
2019-01-28T13:47:06.503Z,12.75
2019-01-28T13:49:38.189Z,12.81
2019-01-28T13:52:06.774Z,12.97
2019-01-28T13:54:33.178Z,12.99
2019-01-28T13:57:03.929Z,13.00
2019-01-28T13:59:31.212Z,13.23
2019-01-28T14:04:43.388Z,12.92
2019-01-28T14:07:10.053Z,12.71
2019-01-28T14:09:36.658Z,12.75
2019-01-28T14:12:03.497Z,12.79
2019-01-28T14:14:30.437Z,12.84
2019-01-28T14:16:57.074Z,12.88
2019-01-28T14:19:23.753Z,12.95
2019-01-28T14:21:50.517Z,12.76
2019-01-28T14:24:17.146Z,12.62
2019-01-28T14:26:43.864Z,12.42
2019-01-28T14:29:10.747Z,12.35
2019-01-28T14:31:37.643Z,12.38
2019-01-28T14:34:04.246Z,12.20
2019-01-28T14:36:30.887Z,12.35
2019-01-28T14:39:01.388Z,12.39
2019-01-28T14:41:31.861Z,12.12
2019-01-28T14:44:00.711Z,12.22
2019-01-28T14:46:29.378Z,12.34
2019-01-28T14:48:57.693Z,12.43
2019-01-28T14:51:24.437Z,12.55
2019-01-28T14:53:51.380Z,12.43
2019-01-28T14:56:20.822Z,12.40
2019-01-28T14:58:47.421Z,12.45
2019-01-28T15:01:14.135Z,12.54
2019-01-28T15:03:40.945Z,12.40
2019-01-28T15:06:07.677Z,12.31
2019-01-28T15:08:34.802Z,12.20
2019-01-28T15:11:05.000Z,12.10
2019-01-28T15:13:35.253Z,12.23
2019-01-28T15:16:08.828Z,11.89
2019-01-28T15:18:31.928Z,11.93
2019-01-28T15:21:00.194Z,11.83
2019-01-28T15:23:30.317Z,11.97
2019-01-28T15:25:58.719Z,11.97
2019-01-28T15:28:25.510Z,11.87
2019-01-28T15:30:53.238Z,11.86
2019-01-28T15:33:22.989Z,11.98
2019-01-28T15:35:51.246Z,11.71
2019-01-28T15:38:19.461Z,11.48
2019-01-28T15:40:47.193Z,11.51
2019-01-28T15:43:15.441Z,11.48
2019-01-28T15:45:44.191Z,11.37
2019-01-28T15:48:12.271Z,11.35
2019-01-28T15:50:39.294Z,11.16
2019-01-28T15:53:06.276Z,11.19
2019-01-28T15:55:32.922Z,11.23
2019-01-28T15:57:59.778Z,11.05
2019-01-28T16:00:43.845Z,10.92
2019-01-28T16:03:11.863Z,10.85
2019-01-28T16:05:42.174Z,10.60
2019-01-28T16:08:08.909Z,10.54
2019-01-28T16:10:37.683Z,10.41
2019-01-28T16:15:51.258Z,10.30
2019-01-28T16:18:17.898Z,10.23
2019-01-28T16:20:48.904Z,10.37
2019-01-28T16:23:22.253Z,10.41
2019-01-28T16:25:49.811Z,10.32
2019-01-28T16:28:20.338Z,10.27
2019-01-28T16:30:51.256Z,10.37
2019-01-28T16:33:20.226Z,10.30
2019-01-28T16:35:50.485Z,10.31
2019-01-28T16:38:17.622Z,10.23
2019-01-28T16:40:44.268Z,10.13
2019-01-28T16:43:11.185Z,9.98
2019-01-28T16:45:38.274Z,9.87
2019-01-28T16:48:07.629Z,9.92
2019-01-28T16:50:35.746Z,9.85
2019-01-28T16:53:03.777Z,9.96
2019-01-28T16:55:33.021Z,10.11
2019-01-28T16:58:02.087Z,10.29
2019-01-28T17:00:31.716Z,10.33
2019-01-28T17:02:59.544Z,10.10
2019-01-28T17:05:30.015Z,10.07
2019-01-28T17:07:58.953Z,10.06
2019-01-28T17:10:28.148Z,10.11
2019-01-28T17:12:55.009Z,9.88
2019-01-28T17:15:23.968Z,9.73
2019-01-28T17:17:51.676Z,9.80
2019-01-28T17:20:18.232Z,9.65
2019-01-28T17:22:44.885Z,9.51
2019-01-28T17:25:11.786Z,9.48
2019-01-28T17:27:38.696Z,9.49
2019-01-28T17:30:05.336Z,9.49
2019-01-28T17:32:34.384Z,9.47
2019-01-28T17:35:01.220Z,9.33
2019-01-28T17:37:27.854Z,9.34
2019-01-28T17:39:54.754Z,9.45
2019-01-28T17:42:24.668Z,9.49
2019-01-28T17:44:51.684Z,9.59
2019-01-28T17:47:20.705Z,9.55
2019-01-28T17:50:00.833Z,9.55
2019-01-28T17:52:19.456Z,9.45
2019-01-28T17:54:48.195Z,9.38
2019-01-28T17:57:15.925Z,9.42
2019-01-28T17:59:42.517Z,9.52
2019-01-28T18:02:09.697Z,9.53
2019-01-28T18:04:38.366Z,9.48
2019-01-28T18:07:06.829Z,9.40
2019-01-28T18:09:33.638Z,9.37
2019-01-28T18:14:47.906Z,9.49
2019-01-28T18:17:15.381Z,9.53
2019-01-28T18:19:42.283Z,9.44
2019-01-28T18:22:11.349Z,9.48
2019-01-28T18:24:38.499Z,9.33
2019-01-28T18:27:06.987Z,9.46
2019-01-28T18:29:33.589Z,9.56
2019-01-28T18:32:01.342Z,9.41
2019-01-28T18:34:32.440Z,9.41
2019-01-28T18:36:59.084Z,9.55
2019-01-28T18:39:26.487Z,9.62
2019-01-28T18:41:53.159Z,9.56
2019-01-28T18:44:19.784Z,9.57
2019-01-28T18:46:46.724Z,9.58
2019-01-28T18:49:13.621Z,9.57
2019-01-28T18:51:40.222Z,9.44
2019-01-28T18:54:07.158Z,9.37
2019-01-28T18:56:33.817Z,9.37
2019-01-28T18:59:00.833Z,9.43
2019-01-28T19:01:27.779Z,9.43
2019-01-28T19:03:54.416Z,9.48
2019-01-28T19:06:21.057Z,9.39
2019-01-28T19:08:47.953Z,9.40
2019-01-28T19:11:14.816Z,9.63
2019-01-28T19:13:41.442Z,9.46
2019-01-28T19:16:08.270Z,9.48
2019-01-28T19:18:36.432Z,9.31
2019-01-28T19:21:07.781Z,9.33
2019-01-28T19:23:31.512Z,9.21
2019-01-28T19:25:58.158Z,9.13
2019-01-28T19:28:24.801Z,9.01
2019-01-28T19:30:51.503Z,9.12
2019-01-28T19:33:18.240Z,9.14
2019-01-28T19:35:44.850Z,9.04
2019-01-28T19:38:11.805Z,9.09
2019-01-28T19:40:38.376Z,9.33
2019-01-28T19:43:06.747Z,9.22
2019-01-28T19:45:33.460Z,9.17
2019-01-28T19:48:00.074Z,9.22
2019-01-28T19:50:26.701Z,9.40
2019-01-28T19:52:53.702Z,9.32
2019-01-28T19:55:20.623Z,9.15
2019-01-28T19:57:47.801Z,9.11
2019-01-28T20:00:14.737Z,8.87
2019-01-28T20:02:41.717Z,8.78
2019-01-28T20:05:08.627Z,8.78
2019-01-28T20:07:35.487Z,9.09
2019-01-28T20:10:02.111Z,9.02
2019-01-28T20:12:28.930Z,8.86
2019-01-28T20:14:55.922Z,8.85
2019-01-28T20:17:22.872Z,8.77
2019-01-28T20:19:49.828Z,8.70
2019-01-28T20:22:16.501Z,8.84
2019-01-28T20:24:43.102Z,8.73
2019-01-28T20:27:12.074Z,8.86
2019-01-28T20:29:38.455Z,8.79
2019-01-28T20:32:05.703Z,8.63
2019-01-28T20:34:32.298Z,8.59
2019-01-28T20:36:59.310Z,8.49
2019-01-28T20:39:26.346Z,8.36
2019-01-28T20:44:39.961Z,8.53
2019-01-28T20:47:07.763Z,8.33
2019-01-28T20:49:35.539Z,8.19
2019-01-28T20:52:02.486Z,8.29
2019-01-28T20:54:29.425Z,8.26
2019-01-28T20:56:57.655Z,8.23
2019-01-28T20:59:24.579Z,8.16
2019-01-28T21:01:51.478Z,8.25
2019-01-28T21:04:19.725Z,8.37
2019-01-28T21:06:46.645Z,8.21
2019-01-28T21:09:13.753Z,8.11
2019-01-28T21:11:40.465Z,8.26
2019-01-28T21:14:08.725Z,8.27
2019-01-28T21:16:35.371Z,8.42
2019-01-28T21:19:02.095Z,8.38
2019-01-28T21:21:29.756Z,8.26
2019-01-28T21:23:56.386Z,8.29
2019-01-28T21:26:24.007Z,8.47
2019-01-28T21:28:50.831Z,8.58
2019-01-28T21:31:18.503Z,8.51
2019-01-28T21:33:45.234Z,8.33
2019-01-28T21:36:12.892Z,8.19
2019-01-28T21:38:39.583Z,8.36
2019-01-28T21:41:06.431Z,8.39
2019-01-28T21:43:33.080Z,8.47
2019-01-28T21:46:00.021Z,8.38
2019-01-28T21:48:26.771Z,8.51
2019-01-28T21:50:53.377Z,8.48
2019-01-28T21:53:20.013Z,8.25
2019-01-28T21:55:46.812Z,8.34
2019-01-28T21:58:13.412Z,8.33
2019-01-28T22:00:42.339Z,8.08
2019-01-28T22:03:09.016Z,8.13
2019-01-28T22:05:41.445Z,8.07
2019-01-28T22:08:08.140Z,8.26
2019-01-28T22:10:34.720Z,8.30
2019-01-28T22:15:46.953Z,8.21
2019-01-28T22:18:15.100Z,8.28
2019-01-28T22:20:41.857Z,8.31
2019-01-28T22:23:08.986Z,8.17
2019-01-28T22:25:35.890Z,8.02
2019-01-28T22:28:06.262Z,7.91
2019-01-28T22:30:33.499Z,7.99
2019-01-28T22:33:00.211Z,8.11
2019-01-28T22:35:27.541Z,8.06
2019-01-28T22:37:54.467Z,8.13
2019-01-28T22:40:22.105Z,8.16
2019-01-28T22:42:48.838Z,8.16
2019-01-28T22:45:16.744Z,8.28
2019-01-28T22:47:43.449Z,8.28
2019-01-28T22:50:10.130Z,8.11
2019-01-28T22:52:37.236Z,8.04
2019-01-28T22:55:04.728Z,8.32
2019-01-28T22:57:31.432Z,8.26
2019-01-28T22:59:58.509Z,8.06
2019-01-28T23:02:25.126Z,7.80
2019-01-28T23:04:52.112Z,7.64
2019-01-28T23:07:18.842Z,7.51
2019-01-28T23:09:45.570Z,7.56
2019-01-28T23:12:12.492Z,7.60
2019-01-28T23:14:39.202Z,7.58
2019-01-28T23:17:06.698Z,7.46
2019-01-28T23:19:33.730Z,7.41
2019-01-28T23:22:00.464Z,7.30
2019-01-28T23:24:27.334Z,7.28
2019-01-28T23:26:54.912Z,7.39
2019-01-28T23:29:25.818Z,7.42
2019-01-28T23:31:52.968Z,7.34
2019-01-28T23:34:19.908Z,7.37
2019-01-28T23:36:46.600Z,7.44
2019-01-28T23:39:13.296Z,7.48
2019-01-28T23:44:13.694Z,6.86
2019-01-28T23:46:41.546Z,6.69
2019-01-28T23:49:08.311Z,6.73
2019-01-28T23:51:36.562Z,6.91
2019-01-28T23:54:03.195Z,6.96
2019-01-28T23:56:30.066Z,7.18
2019-01-28T23:58:56.982Z,6.96
